createdAt,value
2023-03-22T00:00:46.910Z,9.34
2023-03-22T00:02:48.938Z,9.21
2023-03-22T00:04:48.252Z,9.20
2023-03-22T00:06:43.987Z,9.19
2023-03-22T00:08:40.381Z,9.12
2023-03-22T00:10:38.354Z,9.11
2023-03-22T00:12:38.700Z,9.13
2023-03-22T00:14:36.489Z,9.12
2023-03-22T00:16:39.470Z,9.12
2023-03-22T00:18:38.405Z,9.10
2023-03-22T00:20:38.877Z,9.13
2023-03-22T00:22:35.616Z,9.13
2023-03-22T00:24:37.229Z,9.11
2023-03-22T00:26:35.420Z,9.16
2023-03-22T00:28:32.388Z,9.14
2023-03-22T00:30:32.945Z,9.12
2023-03-22T00:32:34.090Z,9.15
2023-03-22T00:34:34.445Z,9.15
2023-03-22T00:36:30.722Z,9.12
2023-03-22T00:38:42.541Z,9.09
2023-03-22T00:40:40.835Z,9.06
2023-03-22T00:42:38.058Z,9.07
2023-03-22T00:44:33.227Z,9.04
2023-03-22T00:46:28.827Z,9.04
2023-03-22T00:48:23.942Z,9.07
2023-03-22T00:50:19.764Z,9.07
2023-03-22T00:52:15.978Z,9.05
2023-03-22T00:54:11.923Z,9.03
2023-03-22T00:56:08.537Z,9.02
2023-03-22T00:58:04.090Z,9.01
2023-03-22T00:59:59.990Z,9.03
2023-03-22T01:01:55.922Z,9.04
2023-03-22T01:03:53.974Z,9.04
2023-03-22T01:05:49.371Z,9.04
2023-03-22T01:07:45.526Z,9.00
2023-03-22T01:09:40.515Z,9.02
2023-03-22T01:11:36.123Z,9.01
2023-03-22T01:13:31.809Z,8.98
2023-03-22T01:15:27.429Z,8.97
2023-03-22T01:17:22.531Z,9.01
2023-03-22T01:19:21.320Z,9.02
2023-03-22T01:21:18.483Z,8.96
2023-03-22T01:23:14.564Z,8.95
2023-03-22T01:25:10.969Z,8.90
2023-03-22T01:27:06.626Z,8.89
2023-03-22T01:29:01.681Z,8.90
2023-03-22T01:30:57.717Z,8.91
2023-03-22T01:32:52.795Z,8.91
2023-03-22T01:34:52.276Z,8.90
2023-03-22T01:36:47.732Z,8.86
2023-03-22T01:38:43.495Z,8.82
2023-03-22T01:40:39.029Z,8.74
2023-03-22T01:42:34.658Z,8.74
2023-03-22T01:44:32.948Z,8.74
2023-03-22T01:46:34.654Z,8.82
2023-03-22T01:48:34.288Z,8.83
2023-03-22T01:50:33.619Z,8.83
2023-03-22T01:52:29.152Z,8.82
2023-03-22T01:54:29.507Z,8.79
2023-03-22T01:56:26.909Z,8.80
2023-03-22T01:58:25.676Z,8.81
2023-03-22T02:00:21.428Z,8.79
2023-03-22T02:02:19.348Z,8.73
2023-03-22T02:04:20.061Z,8.72
2023-03-22T02:06:18.666Z,8.70
2023-03-22T02:08:15.160Z,8.72
2023-03-22T02:10:14.415Z,8.75
2023-03-22T02:12:24.350Z,8.78
2023-03-22T02:14:45.443Z,8.69
2023-03-22T02:16:53.535Z,8.65
2023-03-22T02:19:00.501Z,8.63
2023-03-22T02:21:28.846Z,8.61
2023-03-22T02:24:08.405Z,8.60
2023-03-22T02:26:34.633Z,8.63
2023-03-22T02:28:44.198Z,8.68
2023-03-22T02:31:12.878Z,8.66
2023-03-22T02:33:41.634Z,8.57
2023-03-22T02:35:44.739Z,8.50
2023-03-22T02:38:08.884Z,8.49
2023-03-22T02:40:15.326Z,8.55
2023-03-22T02:42:26.379Z,8.55
2023-03-22T02:44:26.548Z,8.46
2023-03-22T02:46:27.923Z,8.44
2023-03-22T02:48:31.302Z,8.45
2023-03-22T02:50:29.703Z,8.47
2023-03-22T02:52:33.025Z,8.48
2023-03-22T02:54:35.629Z,8.43
2023-03-22T02:56:39.297Z,8.42
2023-03-22T02:58:45.922Z,8.41
2023-03-22T03:00:43.014Z,8.40
2023-03-22T03:02:39.632Z,8.36
2023-03-22T03:04:39.189Z,8.32
2023-03-22T03:06:38.972Z,8.31
2023-03-22T03:08:34.066Z,8.33
2023-03-22T03:10:30.478Z,8.30
2023-03-22T03:12:30.320Z,8.31
2023-03-22T03:14:27.833Z,8.23
2023-03-22T03:16:26.654Z,8.21
2023-03-22T03:18:36.017Z,8.16
2023-03-22T03:20:42.605Z,8.14
2023-03-22T03:22:48.192Z,8.09
2023-03-22T03:24:51.835Z,8.07
2023-03-22T03:26:56.316Z,8.04
2023-03-22T03:28:58.379Z,8.00
2023-03-22T03:30:59.831Z,7.99
2023-03-22T03:32:59.248Z,8.01
2023-03-22T03:34:59.411Z,8.03
2023-03-22T03:36:59.039Z,8.02
2023-03-22T03:38:57.415Z,8.00
2023-03-22T03:40:55.634Z,7.98
2023-03-22T03:42:57.040Z,7.92
2023-03-22T03:44:54.668Z,7.93
2023-03-22T03:46:51.737Z,7.94
2023-03-22T03:48:50.743Z,7.95
2023-03-22T03:50:46.329Z,7.96
2023-03-22T03:52:41.644Z,7.95
2023-03-22T03:54:36.715Z,7.90
2023-03-22T03:56:32.206Z,7.85
2023-03-22T03:58:27.262Z,7.86
2023-03-22T04:00:25.449Z,7.88
2023-03-22T04:02:20.428Z,7.87
2023-03-22T04:04:15.457Z,7.88
2023-03-22T04:06:11.696Z,7.88
2023-03-22T04:08:06.861Z,7.88
2023-03-22T04:10:03.673Z,7.83
2023-03-22T04:12:00.129Z,7.79
2023-03-22T04:13:56.231Z,7.80
2023-03-22T04:15:57.456Z,7.78
2023-03-22T04:17:53.778Z,7.76
2023-03-22T04:19:52.164Z,7.73
2023-03-22T04:21:47.793Z,7.75
2023-03-22T04:23:46.641Z,7.78
2023-03-22T04:25:42.011Z,7.75
2023-03-22T04:27:37.005Z,7.73
2023-03-22T04:29:32.364Z,7.75
2023-03-22T04:31:30.031Z,7.76
2023-03-22T04:33:28.295Z,7.72
2023-03-22T04:35:23.364Z,7.72
2023-03-22T04:37:19.517Z,7.73
2023-03-22T04:39:15.335Z,7.75
2023-03-22T04:41:10.469Z,7.75
2023-03-22T04:43:06.398Z,7.72
2023-03-22T04:45:03.518Z,7.72
2023-03-22T04:47:01.580Z,7.69
2023-03-22T04:48:56.570Z,7.68
2023-03-22T04:50:53.531Z,7.68
2023-03-22T04:52:50.053Z,7.74
2023-03-22T04:54:45.426Z,7.68
2023-03-22T04:56:40.343Z,7.69
2023-03-22T04:58:37.344Z,7.67
2023-03-22T05:00:34.229Z,7.69
2023-03-22T05:02:32.603Z,7.68
2023-03-22T05:04:28.305Z,7.68
2023-03-22T05:06:24.324Z,7.71
2023-03-22T05:08:19.488Z,7.71
2023-03-22T05:10:14.843Z,7.68
2023-03-22T05:12:10.257Z,7.63
2023-03-22T05:14:06.866Z,7.60
2023-03-22T05:16:02.230Z,7.63
2023-03-22T05:18:00.189Z,7.62
2023-03-22T05:19:55.125Z,7.65
2023-03-22T05:21:57.932Z,7.68
2023-03-22T05:23:52.986Z,7.70
2023-03-22T05:25:50.013Z,7.71
2023-03-22T05:27:45.200Z,7.70
2023-03-22T05:29:44.892Z,7.64
2023-03-22T05:31:40.594Z,7.63
2023-03-22T05:33:38.430Z,7.66
2023-03-22T05:35:34.624Z,7.66
2023-03-22T05:37:29.962Z,7.66
2023-03-22T05:39:25.381Z,7.70
2023-03-22T05:41:20.452Z,7.66
2023-03-22T05:43:15.996Z,7.66
2023-03-22T05:45:12.924Z,7.68
2023-03-22T05:47:08.479Z,7.72
2023-03-22T05:49:06.129Z,7.74
2023-03-22T05:51:03.442Z,7.72
2023-03-22T05:52:58.892Z,7.74
2023-03-22T05:54:54.295Z,7.73
2023-03-22T05:56:49.310Z,7.75
2023-03-22T05:58:45.464Z,7.77
2023-03-22T06:00:40.935Z,7.78
2023-03-22T06:02:38.633Z,7.83
2023-03-22T06:04:36.469Z,7.86
2023-03-22T06:06:31.786Z,7.84
2023-03-22T06:08:27.347Z,7.83
2023-03-22T06:10:24.309Z,7.83
2023-03-22T06:12:22.688Z,7.86
2023-03-22T06:14:18.039Z,7.85
2023-03-22T06:16:13.910Z,7.85
2023-03-22T06:18:10.388Z,7.86
2023-03-22T06:20:11.930Z,7.88
2023-03-22T06:22:07.362Z,7.89
2023-03-22T06:24:02.359Z,7.90
2023-03-22T06:25:57.959Z,7.90
2023-03-22T06:27:52.993Z,7.92
2023-03-22T06:29:51.109Z,7.97
2023-03-22T06:31:47.644Z,8.02
2023-03-22T06:33:44.901Z,7.99
2023-03-22T06:35:45.988Z,8.01
2023-03-22T06:37:46.901Z,8.04
2023-03-22T06:39:42.710Z,8.07
2023-03-22T06:41:38.341Z,8.06
2023-03-22T06:43:33.530Z,8.05
2023-03-22T06:45:33.351Z,8.06
2023-03-22T06:47:28.690Z,8.05
2023-03-22T06:50:04.303Z,8.08
2023-03-22T06:52:02.766Z,8.09
2023-03-22T06:53:59.479Z,8.07
2023-03-22T06:55:55.563Z,8.12
2023-03-22T06:57:50.784Z,8.05
2023-03-22T06:59:46.148Z,8.06
2023-03-22T07:01:41.368Z,8.09
2023-03-22T07:03:36.757Z,8.10
2023-03-22T07:05:31.801Z,8.10
2023-03-22T07:07:30.310Z,8.14
2023-03-22T07:09:27.318Z,8.13
2023-03-22T07:11:23.339Z,8.10
2023-03-22T07:13:18.640Z,8.12
2023-03-22T07:15:14.518Z,8.16
2023-03-22T07:17:10.297Z,8.20
2023-03-22T07:19:09.120Z,8.20
2023-03-22T07:21:04.994Z,8.25
2023-03-22T07:23:04.640Z,8.24
2023-03-22T07:25:01.895Z,8.25
2023-03-22T07:26:58.863Z,8.27
2023-03-22T07:28:54.850Z,8.31
2023-03-22T07:35:22.352Z,8.30
2023-03-22T07:45:51.686Z,8.49
2023-03-22T07:48:47.041Z,8.50
2023-03-22T07:50:56.173Z,8.49
2023-03-22T07:53:32.563Z,8.60
2023-03-22T07:56:39.272Z,8.61
2023-03-22T07:59:02.303Z,8.68
2023-03-22T08:01:48.739Z,8.72
2023-03-22T08:07:16.011Z,8.98
2023-03-22T08:10:01.327Z,9.02
2023-03-22T08:15:32.747Z,9.15
2023-03-22T08:18:27.786Z,9.16
2023-03-22T08:20:31.990Z,9.24
2023-03-22T08:22:29.742Z,9.35
2023-03-22T08:24:25.054Z,9.52
2023-03-22T08:26:20.371Z,9.72
2023-03-22T08:28:15.963Z,9.76
2023-03-22T08:30:12.593Z,9.60
2023-03-22T08:32:10.735Z,9.65
2023-03-22T08:34:05.769Z,9.74
2023-03-22T08:36:09.179Z,9.85
2023-03-22T08:38:04.194Z,9.95
2023-03-22T08:39:59.938Z,9.94
2023-03-22T08:41:55.408Z,10.02
2023-03-22T08:43:51.080Z,10.05
2023-03-22T08:45:50.372Z,10.07
2023-03-22T08:47:53.585Z,10.08
2023-03-22T08:49:49.473Z,10.15
2023-03-22T08:54:37.444Z,10.27
2023-03-22T08:56:38.376Z,10.27
2023-03-22T08:58:33.595Z,10.25
2023-03-22T09:00:39.312Z,10.16
2023-03-22T09:02:42.874Z,10.27
2023-03-22T09:04:41.134Z,10.28
2023-03-22T09:06:37.550Z,10.32
2023-03-22T09:08:33.478Z,10.43
2023-03-22T09:10:28.809Z,10.49
2023-03-22T09:12:24.828Z,10.56
2023-03-22T09:14:20.819Z,10.72
2023-03-22T09:16:20.988Z,10.85
2023-03-22T09:18:19.681Z,10.99
2023-03-22T09:20:19.352Z,11.04
2023-03-22T09:22:14.874Z,11.21
2023-03-22T09:24:11.470Z,11.43
2023-03-22T09:26:08.360Z,11.48
2023-03-22T09:28:16.936Z,11.64
2023-03-22T09:30:13.144Z,11.67
2023-03-22T09:32:08.886Z,11.82
2023-03-22T09:34:03.822Z,11.86
2023-03-22T09:36:02.029Z,12.22
2023-03-22T09:37:58.993Z,12.39
2023-03-22T09:39:54.479Z,12.44
2023-03-22T09:41:53.419Z,12.70
2023-03-22T09:43:54.100Z,12.50
2023-03-22T09:45:53.024Z,12.37
2023-03-22T09:47:53.810Z,12.66
2023-03-22T09:49:54.223Z,12.85
2023-03-22T09:51:54.629Z,12.67
2023-03-22T09:53:50.044Z,12.68
2023-03-22T09:55:53.143Z,12.64
2023-03-22T09:57:52.144Z,12.64
2023-03-22T09:59:59.279Z,12.43
2023-03-22T10:01:59.552Z,12.37
2023-03-22T10:04:26.498Z,12.57
2023-03-22T10:06:23.458Z,12.82
2023-03-22T10:08:35.980Z,13.07
2023-03-22T10:10:31.757Z,12.95
2023-03-22T10:12:31.973Z,12.99
2023-03-22T10:14:33.628Z,13.13
2023-03-22T10:16:35.894Z,12.99
2023-03-22T10:18:37.650Z,13.05
2023-03-22T10:20:39.134Z,13.09
2023-03-22T10:22:38.348Z,13.05
2023-03-22T10:24:38.419Z,13.16
2023-03-22T10:26:39.822Z,13.30
2023-03-22T10:28:40.484Z,13.47
2023-03-22T10:30:43.334Z,13.37
2023-03-22T10:32:57.146Z,13.37
2023-03-22T10:34:54.867Z,13.11
2023-03-22T10:36:52.825Z,13.20
2023-03-22T10:38:52.964Z,13.44
2023-03-22T10:40:52.607Z,13.31
2023-03-22T10:42:55.968Z,13.38
2023-03-22T10:44:54.914Z,13.42
2023-03-22T10:46:52.714Z,13.47
2023-03-22T10:48:51.105Z,13.62
2023-03-22T10:50:48.667Z,13.91
2023-03-22T10:52:51.184Z,13.88
2023-03-22T10:54:47.219Z,14.00
2023-03-22T10:56:46.326Z,14.03
2023-03-22T10:58:43.551Z,13.88
2023-03-22T11:00:42.264Z,14.03
2023-03-22T11:02:38.195Z,13.93
2023-03-22T11:04:34.117Z,14.03
2023-03-22T11:06:32.979Z,14.03
2023-03-22T11:08:28.652Z,14.17
2023-03-22T11:10:31.295Z,14.11
2023-03-22T11:12:30.020Z,13.94
2023-03-22T11:14:30.822Z,13.86
2023-03-22T11:16:26.888Z,14.12
2023-03-22T11:18:22.773Z,13.91
2023-03-22T11:20:20.112Z,13.86
2023-03-22T11:22:27.594Z,13.90
2023-03-22T11:24:24.137Z,14.20
2023-03-22T11:26:29.130Z,14.48
2023-03-22T11:28:32.168Z,14.42
2023-03-22T11:30:30.171Z,14.48
2023-03-22T11:32:29.919Z,14.47
2023-03-22T11:34:27.223Z,14.20
2023-03-22T11:36:22.999Z,14.03
2023-03-22T11:38:32.811Z,14.04
2023-03-22T11:40:30.236Z,14.02
2023-03-22T11:42:25.613Z,13.95
2023-03-22T11:44:26.002Z,14.02
2023-03-22T11:46:21.987Z,14.05
2023-03-22T11:48:20.502Z,13.97
2023-03-22T11:50:30.700Z,14.10
2023-03-22T11:52:29.256Z,14.27
2023-03-22T11:54:32.649Z,14.40
2023-03-22T11:56:35.125Z,14.48
2023-03-22T11:58:32.281Z,14.55
2023-03-22T12:00:34.304Z,14.60
2023-03-22T12:02:32.842Z,14.82
2023-03-22T12:04:31.486Z,14.90
2023-03-22T12:06:34.055Z,14.83
2023-03-22T12:08:36.248Z,14.95
2023-03-22T12:10:34.298Z,15.16
2023-03-22T12:12:34.295Z,15.31
2023-03-22T12:14:32.443Z,15.61
2023-03-22T12:16:35.868Z,15.53
2023-03-22T12:18:37.603Z,15.62
2023-03-22T12:20:43.965Z,15.59
2023-03-22T12:22:45.697Z,15.72
2023-03-22T12:24:42.888Z,15.45
2023-03-22T12:26:41.344Z,15.76
2023-03-22T12:28:43.832Z,15.95
2023-03-22T12:30:43.278Z,16.24
2023-03-22T12:32:46.191Z,16.03
2023-03-22T12:34:47.443Z,16.50
2023-03-22T12:36:48.755Z,16.61
2023-03-22T12:38:49.484Z,16.52
2023-03-22T12:40:46.108Z,16.67
2023-03-22T12:42:54.139Z,16.36
2023-03-22T12:45:04.157Z,16.29
2023-03-22T12:47:02.576Z,16.38
2023-03-22T12:49:05.295Z,16.81
2023-03-22T12:51:03.183Z,16.84
2023-03-22T12:52:59.469Z,16.96
2023-03-22T12:54:56.288Z,16.66
2023-03-22T12:57:07.005Z,16.92
2023-03-22T12:59:06.785Z,17.21
2023-03-22T13:01:20.962Z,16.90
2023-03-22T13:03:29.599Z,16.49
2023-03-22T13:05:30.910Z,16.70
2023-03-22T13:07:41.144Z,17.31
2023-03-22T13:09:43.084Z,17.38
2023-03-22T13:11:38.406Z,16.61
2023-03-22T13:13:44.530Z,16.67
2023-03-22T13:15:42.630Z,16.56
2023-03-22T13:17:47.593Z,16.57
2023-03-22T13:19:55.327Z,16.97
2023-03-22T13:21:54.849Z,16.80
2023-03-22T13:24:00.717Z,16.59
2023-03-22T13:26:07.953Z,16.51
2023-03-22T13:28:06.833Z,16.18
2023-03-22T13:30:05.797Z,16.02
2023-03-22T13:32:02.735Z,15.96
2023-03-22T13:33:58.525Z,15.98
2023-03-22T13:35:57.263Z,15.84
2023-03-22T13:37:55.565Z,16.36
2023-03-22T13:39:54.651Z,16.77
2023-03-22T13:42:06.042Z,17.39
2023-03-22T13:44:03.303Z,17.85
2023-03-22T13:46:06.865Z,17.82
2023-03-22T13:48:09.450Z,17.87
2023-03-22T13:50:09.560Z,18.72
2023-03-22T13:52:10.063Z,18.39
2023-03-22T13:54:13.374Z,17.47
2023-03-22T13:56:10.849Z,17.11
2023-03-22T13:58:19.383Z,16.68
2023-03-22T14:00:48.054Z,17.11
2023-03-22T14:02:48.663Z,17.14
2023-03-22T14:04:48.424Z,16.73
2023-03-22T14:06:51.943Z,17.19
2023-03-22T14:08:52.622Z,16.88
2023-03-22T14:17:12.819Z,17.00
2023-03-22T14:19:10.941Z,17.09
2023-03-22T14:21:22.270Z,16.73
2023-03-22T14:53:15.595Z,17.18
2023-03-22T14:55:18.286Z,17.37
2023-03-22T14:57:19.269Z,17.01
2023-03-22T14:59:23.482Z,17.03
2023-03-22T15:01:23.349Z,17.29
2023-03-22T15:03:26.868Z,17.03
2023-03-22T15:05:24.910Z,17.09
2023-03-22T15:07:21.836Z,17.01
2023-03-22T15:09:21.119Z,17.10
2023-03-22T15:11:18.257Z,17.05
2023-03-22T15:13:16.716Z,16.97
2023-03-22T15:15:13.769Z,16.97
2023-03-22T15:17:11.433Z,16.88
2023-03-22T15:19:09.390Z,16.65
2023-03-22T15:21:06.490Z,16.82
2023-03-22T15:23:09.520Z,16.67
2023-03-22T15:25:07.281Z,16.61
2023-03-22T15:27:05.083Z,16.58
2023-03-22T15:29:05.292Z,16.65
2023-03-22T15:31:04.001Z,16.58
2023-03-22T15:33:07.174Z,16.52
2023-03-22T15:35:09.312Z,16.44
2023-03-22T15:37:05.071Z,16.40
2023-03-22T15:39:05.148Z,16.40
2023-03-22T15:41:00.376Z,16.29
2023-03-22T15:42:55.777Z,16.33
2023-03-22T15:45:01.084Z,16.50
2023-03-22T15:46:59.312Z,16.63
2023-03-22T15:49:02.062Z,16.55
2023-03-22T15:50:57.465Z,16.58
2023-03-22T15:52:54.532Z,16.57
2023-03-22T15:54:59.501Z,16.39
2023-03-22T15:56:54.682Z,16.22
2023-03-22T15:58:58.145Z,16.38
2023-03-22T16:00:56.335Z,16.34
2023-03-22T16:02:58.946Z,16.32
2023-03-22T16:04:55.576Z,16.29
2023-03-22T16:06:51.715Z,16.26
2023-03-22T16:08:46.959Z,16.29
2023-03-22T16:10:45.147Z,16.11
2023-03-22T16:12:43.152Z,16.09
2023-03-22T16:14:40.038Z,15.99
2023-03-22T16:16:38.293Z,15.99
2023-03-22T16:18:35.222Z,16.07
2023-03-22T16:20:35.045Z,15.92
2023-03-22T16:23:08.001Z,15.97
2023-03-22T16:25:27.634Z,15.95
2023-03-22T16:27:59.490Z,15.90
2023-03-22T16:30:17.653Z,15.88
2023-03-22T16:33:03.893Z,15.78
2023-03-22T16:35:29.816Z,15.81
2023-03-22T16:37:43.462Z,15.83
2023-03-22T16:39:42.380Z,15.90
2023-03-22T16:41:43.095Z,15.87
2023-03-22T16:43:38.554Z,15.70
2023-03-22T16:45:36.404Z,15.75
2023-03-22T16:47:37.218Z,15.64
2023-03-22T16:49:33.586Z,15.53
2023-03-22T16:51:30.969Z,15.43
2023-03-22T16:53:28.428Z,15.51
2023-03-22T16:55:28.525Z,15.63
2023-03-22T16:57:27.733Z,15.54
2023-03-22T16:59:22.897Z,15.35
2023-03-22T17:01:20.683Z,15.34
2023-03-22T17:03:27.770Z,15.36
2023-03-22T17:12:21.622Z,15.19
2023-03-22T17:15:50.715Z,15.05
2023-03-22T17:22:06.860Z,14.92
2023-03-22T17:24:07.726Z,14.85
2023-03-22T17:26:02.898Z,14.87
2023-03-22T17:28:01.163Z,14.92
2023-03-22T17:29:56.247Z,14.94
2023-03-22T17:31:57.941Z,14.80
2023-03-22T17:34:00.676Z,14.75
2023-03-22T17:35:58.194Z,14.78
2023-03-22T17:37:56.248Z,14.82
2023-03-22T17:41:55.891Z,14.71
2023-03-22T17:43:51.362Z,14.65
2023-03-22T17:46:30.314Z,14.63
2023-03-22T17:48:06.158Z,14.62
2023-03-22T17:50:01.625Z,14.61
2023-03-22T17:52:01.510Z,14.64
2023-03-22T18:51:10.907Z,14.10
2023-03-22T18:53:18.340Z,14.01
2023-03-22T18:55:28.898Z,14.01
2023-03-22T18:57:48.000Z,14.00
2023-03-22T19:00:07.583Z,14.01
2023-03-22T19:02:20.731Z,14.02
2023-03-22T19:04:25.728Z,14.05
2023-03-22T19:06:24.463Z,13.99
2023-03-22T19:08:26.672Z,13.93
2023-03-22T19:10:23.800Z,13.88
2023-03-22T19:12:21.549Z,13.84
2023-03-22T19:15:08.939Z,13.84
2023-03-22T19:16:32.234Z,13.81
2023-03-22T19:18:28.080Z,13.82
2023-03-22T19:20:23.644Z,13.82
2023-03-22T19:22:38.186Z,13.82
2023-03-22T19:24:34.473Z,13.88
2023-03-22T19:28:34.411Z,13.83
2023-03-22T19:30:34.704Z,13.82
2023-03-22T19:32:29.821Z,13.86
2023-03-22T19:34:25.841Z,13.80
2023-03-22T19:36:20.997Z,13.80
2023-03-22T19:38:22.641Z,13.88
2023-03-22T19:41:20.376Z,13.90
2023-03-22T19:42:37.203Z,13.82
2023-03-22T19:44:32.495Z,13.87
2023-03-22T19:46:30.256Z,13.86
2023-03-22T19:48:25.637Z,13.79
2023-03-22T19:50:21.527Z,13.79
2023-03-22T19:52:17.334Z,13.75
2023-03-22T19:54:33.016Z,13.71
2023-03-22T19:56:50.838Z,13.74
2023-03-22T19:58:56.258Z,13.75
2023-03-22T20:00:56.270Z,13.74
2023-03-22T20:02:52.112Z,13.70
2023-03-22T20:04:47.627Z,13.71
2023-03-22T20:06:43.393Z,13.71
2023-03-22T20:08:43.943Z,13.72
2023-03-22T20:10:54.181Z,13.72
2023-03-22T20:12:52.083Z,13.77
2023-03-22T20:14:47.961Z,13.81
2023-03-22T20:16:43.434Z,13.82
2023-03-22T20:18:41.011Z,13.76
2023-03-22T20:20:36.497Z,13.69
2023-03-22T20:22:32.277Z,13.59
2023-03-22T20:24:27.616Z,13.54
2023-03-22T20:26:26.010Z,13.58
2023-03-22T20:28:24.478Z,13.55
2023-03-22T20:30:22.628Z,13.57
2023-03-22T20:32:17.905Z,13.57
2023-03-22T20:34:13.798Z,13.55
2023-03-22T20:36:11.698Z,13.55
2023-03-22T20:38:08.222Z,13.55
2023-03-22T20:40:05.610Z,13.56
2023-03-22T20:42:26.527Z,13.52
2023-03-22T20:44:27.016Z,13.48
2023-03-22T20:46:22.714Z,13.49
2023-03-22T20:48:23.072Z,13.51
2023-03-22T20:50:54.263Z,13.50
2023-03-22T20:52:53.475Z,13.50
2023-03-22T20:55:33.652Z,13.52
2023-03-22T20:58:01.068Z,13.51
2023-03-22T21:00:01.275Z,13.49
2023-03-22T21:01:57.493Z,13.44
2023-03-22T21:03:57.714Z,13.38
2023-03-22T21:05:54.241Z,13.33
2023-03-22T21:07:54.329Z,13.28
2023-03-22T21:09:56.470Z,13.19
2023-03-22T21:12:26.929Z,13.18
2023-03-22T21:14:56.602Z,13.14
2023-03-22T21:17:13.796Z,13.07
2023-03-22T21:21:26.999Z,13.05
2023-03-22T22:11:01.234Z,12.68
2023-03-22T22:14:24.173Z,12.61
2023-03-22T22:50:19.720Z,12.28
2023-03-22T22:52:50.779Z,12.28
2023-03-22T22:55:48.780Z,12.18
2023-03-22T22:57:41.063Z,12.29
2023-03-22T23:23:39.663Z,12.26
2023-03-22T23:25:59.528Z,12.19
2023-03-22T23:54:05.624Z,12.00
